Latest Weather Observations for Mortlake

IDV60801

Issued at 1:05 pm EST Thursday 31 July 2014 (issued every 30 minutes, with the page automatically refreshed every 10 minutes)

About weather observations | Map of weather stations | Latest weather observations for VIC | Other Formats
Station Details ID: 090176 Name: MORTLAKE RACECOURSE Lat: -38.07 Lon: 142.77 Height: 130.0 m
Data from the previous 72 hours. | See also: Recent months at Mortlake
Date/Time
EST
Temp
°C
App
Temp
°C
Dew
Point
Rel
Hum
%
Delta-T
°C
Wind Press
QNH
hPa
Press
MSL
hPa
Rain
since 9 am
mm
Dir
 
Spd
km/h
Gust
km/h
Spd
kts
Gust
kts
31/01:00pm 8.3 1.6 7.2 93 0.5 W 32 50 17 27 995.9 996.1 3.4
31/12:41pm 8.7 3.0 8.3 97 0.2 WSW 28 52 15 28 995.8 - 3.4
31/12:30pm 9.3 3.8 9.0 98 0.1 W 28 43 15 23 995.6 - 3.2
31/12:00pm 11.6 4.0 9.0 84 1.3 W 39 70 21 38 995.3 995.5 0.2
31/11:58am 12.7 5.3 9.9 83 1.4 WNW 39 63 21 34 995.0 - 0.0
31/11:30am 14.2 3.7 8.8 70 2.7 NW 54 80 29 43 993.6 - 0.0
31/11:00am 14.0 2.4 8.4 69 2.8 NNW 59 80 32 43 994.1 994.3 0.0
31/10:30am 13.8 2.7 8.6 71 2.6 NNW 57 82 31 44 994.8 - 0.0
31/10:00am 14.1 3.2 8.7 70 2.8 NNW 56 80 30 43 994.9 995.1 0.0
31/09:36am 13.7 3.5 8.7 72 2.5 NNW 52 72 28 39 995.6 - 0.0
31/09:30am 13.6 3.5 8.9 73 2.4 NNW 52 70 28 38 996.1 - 0.0
31/09:00am 12.9 3.0 8.4 74 2.3 NNW 50 69 27 37 996.7 996.9 0.6
31/08:30am 12.7 5.3 8.2 74 2.2 NNW 37 56 20 30 997.5 - 0.6
31/08:01am 12.7 5.6 8.0 73 2.3 N 35 56 19 30 997.4 - 0.6
31/08:00am 12.8 5.8 8.3 74 2.3 N 35 54 19 29 997.4 997.6 0.6
31/07:30am 13.0 4.4 8.1 72 2.4 NNW 43 59 23 32 998.2 - 0.6
31/07:00am 13.1 3.6 8.2 72 2.5 NNW 48 67 26 36 998.7 998.8 0.6
31/06:42am 13.4 4.8 8.3 71 2.6 NNW 43 65 23 35 999.1 - 0.6
31/06:30am 13.4 5.2 8.3 71 2.6 NNW 41 57 22 31 999.1 - 0.6
31/06:03am 13.0 5.2 8.1 72 2.4 NNW 39 57 21 31 999.0 - 0.6
31/06:00am 13.1 4.9 8.2 72 2.5 NNW 41 57 22 31 999.0 999.1 0.6
31/05:30am 12.9 4.7 8.4 74 2.3 NNW 41 61 22 33 999.4 - 0.6
31/05:27am 13.0 4.8 8.3 73 2.3 NNW 41 61 22 33 999.5 - 0.6
31/05:00am 13.4 5.6 8.3 71 2.6 NNW 39 54 21 29 1000.1 1000.3 0.6
31/04:30am 13.4 5.2 8.3 71 2.6 NNW 41 59 22 32 1000.6 - 0.6
31/04:01am 13.7 5.0 8.5 71 2.6 NNW 44 69 24 37 1000.8 - 0.6
31/04:00am 13.6 5.0 8.7 72 2.5 NNW 44 61 24 33 1000.9 1001.1 0.6
31/03:44am 13.8 5.1 8.6 71 2.6 NNW 44 63 24 34 1001.2 - 0.6
31/03:30am 13.8 4.7 8.6 71 2.6 NNW 46 63 25 34 1001.6 - 0.6
31/03:01am 13.3 4.9 8.8 74 2.3 NNW 43 63 23 34 1002.0 - 0.6
31/03:00am 13.4 4.8 8.9 74 2.3 NNW 44 63 24 34 1002.0 1002.2 0.6
31/02:48am 13.7 4.7 9.0 73 2.4 NNW 46 67 25 36 1002.2 - 0.6
31/02:30am 13.8 4.8 9.0 73 2.4 NNW 46 61 25 33 1002.5 - 0.6
31/02:01am 13.8 5.9 9.3 74 2.3 NNW 41 61 22 33 1002.9 - 0.6
31/02:00am 13.8 6.3 9.3 74 2.3 NNW 39 57 21 31 1002.9 1003.1 0.6
31/01:36am 13.2 6.5 9.6 79 1.9 NNW 35 54 19 29 1003.8 - 0.6
31/01:30am 13.4 6.3 9.6 78 2.0 NNW 37 52 20 28 1003.7 - 0.6
31/01:00am 13.3 5.9 9.9 80 1.8 NNW 39 54 21 29 1004.3 1004.5 0.6
31/12:30am 12.7 6.1 10.1 84 1.3 NNW 35 50 19 27 1005.0 - 0.6
31/12:00am 12.6 5.8 10.7 88 1.0 NNW 37 48 20 26 1005.5 1005.7 0.6
 
Date/Time
EST
Temp
°C
App
Temp
°C
Dew
Point
Rel
Hum
%
Delta-T
°C
Wind Press
QNH
hPa
Press
MSL
hPa
Rain
since 9 am
mm
Dir
 
Spd
km/h
Gust
km/h
Spd
kts
Gust
kts
30/11:30pm 13.1 6.0 10.8 86 1.2 NNW 39 56 21 30 1006.1 - 0.6
30/11:00pm 13.5 7.4 10.3 81 1.7 NW 33 44 18 24 1006.5 1006.7 0.6
30/10:30pm 12.7 6.8 10.4 86 1.2 NW 32 44 17 24 1006.9 - 0.6
30/10:00pm 12.7 6.3 10.6 87 1.1 NNW 35 52 19 28 1007.3 1007.5 0.6
30/09:30pm 12.7 6.5 10.2 85 1.3 NNW 33 44 18 24 1007.4 - 0.6
30/09:00pm 12.8 7.0 10.7 87 1.1 NW 32 41 17 22 1008.0 1008.2 0.6
30/08:30pm 13.1 7.2 10.5 84 1.4 NW 32 43 17 23 1008.1 - 0.6
30/08:00pm 13.4 8.2 10.2 81 1.7 NW 28 43 15 23 1008.2 1008.4 0.6
30/07:30pm 13.5 8.0 10.5 82 1.6 NNW 30 41 16 22 1008.1 - 0.6
30/07:00pm 13.4 8.2 10.4 82 1.6 NNW 28 37 15 20 1008.2 1008.4 0.6
30/06:30pm 13.3 9.0 10.8 85 1.3 NNW 24 33 13 18 1008.5 - 0.6
30/06:00pm 13.2 8.5 10.6 84 1.4 NW 26 37 14 20 1008.6 1008.8 0.6
30/05:30pm 13.5 8.0 10.5 82 1.6 NW 30 41 16 22 1008.3 - 0.6
30/05:00pm 14.1 8.8 11.1 82 1.6 NW 30 44 16 24 1008.3 1008.5 0.6
30/04:30pm 14.1 9.8 12.0 87 1.1 NW 26 43 14 23 1008.4 - 0.6
30/04:00pm 14.3 8.7 11.5 83 1.5 NW 32 44 17 24 1008.6 1008.8 0.6
30/03:30pm 14.1 8.4 11.8 86 1.2 WNW 33 46 18 25 1008.8 - 0.6
30/03:00pm 14.0 9.0 12.2 89 1.0 WNW 30 44 16 24 1008.7 1008.9 0.6
30/02:30pm 14.5 9.0 12.4 87 1.2 NW 33 46 18 25 1008.4 - 0.2
30/02:00pm 15.0 9.0 12.1 83 1.6 NW 35 46 19 25 1008.4 1008.6 0.2
30/01:30pm 15.4 10.0 12.9 85 1.4 NW 33 48 18 26 1008.9 - 0.2
30/01:00pm 13.8 8.7 13.2 96 0.3 NW 32 44 17 24 1009.4 1009.6 0.2
30/12:30pm 13.6 8.4 13.4 99 0.1 WNW 33 46 18 25 1010.0 - 0.0
30/12:00pm 15.2 8.6 12.5 84 1.5 WNW 39 54 21 29 1010.2 1010.4 0.0
30/11:30am 14.2 8.7 12.6 90 0.9 NW 33 50 18 27 1010.7 - 0.0
30/11:14am 13.4 8.0 12.8 96 0.3 NW 33 54 18 29 1011.0 - 0.0
30/11:00am 14.2 8.6 12.2 88 1.1 NW 33 48 18 26 1011.1 1011.3 0.0
30/10:30am 13.5 8.6 12.4 93 0.6 NW 30 46 16 25 1011.3 - 0.0
30/10:00am 13.6 9.0 12.2 91 0.8 NW 28 43 15 23 1011.4 1011.6 0.0
30/09:30am 12.9 8.8 11.6 92 0.7 NW 24 33 13 18 1011.5 - 0.0
30/09:00am 12.4 9.2 11.9 97 0.3 NW 20 26 11 14 1011.5 1011.7 4.2
30/08:30am 11.9 7.8 11.4 97 0.3 NW 24 37 13 20 1011.2 - 4.2
30/08:00am 11.7 7.6 11.4 98 0.2 NW 24 32 13 17 1011.0 1011.2 4.2
30/07:30am 10.7 7.1 10.5 99 0.1 NNW 20 28 11 15 1010.6 - 4.2
30/07:00am 10.2 6.7 10.1 99 0.1 NNW 19 24 10 13 1010.5 1010.7 4.2
30/06:30am 10.5 7.0 10.2 98 0.2 NNW 19 24 10 13 1010.5 - 4.2
30/06:00am 10.9 7.2 10.3 96 0.3 NW 20 30 11 16 1010.5 1010.7 4.2
30/05:30am 11.2 7.6 10.7 97 0.3 NW 20 28 11 15 1010.7 - 4.2
30/05:00am 10.9 7.3 10.4 97 0.3 NW 20 30 11 16 1010.7 1010.9 4.2
30/04:30am 11.0 8.0 10.8 99 0.1 NW 17 22 9 12 1010.5 - 4.2
30/04:00am 10.3 7.5 10.1 99 0.1 NW 15 20 8 11 1010.6 1010.8 4.2
30/03:30am 10.3 7.9 10.1 99 0.1 NW 13 20 7 11 1011.0 - 4.2
30/03:00am 11.1 7.6 10.8 98 0.2 WNW 20 30 11 16 1011.1 1011.3 4.2
30/02:30am 11.3 8.1 11.1 99 0.1 WNW 19 26 10 14 1011.2 - 4.2
30/02:00am 11.4 7.6 11.2 99 0.1 WNW 22 30 12 16 1011.0 1011.2 4.2
30/01:30am 12.1 8.1 11.9 99 0.1 WNW 24 33 13 18 1010.9 - 4.0
30/01:00am 12.2 9.0 12.0 99 0.1 NW 20 28 11 15 1010.6 1010.8 3.4
30/12:30am 12.2 9.6 12.0 99 0.1 WNW 17 26 9 14 1010.6 - 3.0
30/12:00am 12.3 8.4 12.1 99 0.1 WNW 24 33 13 18 1010.4 1010.6 2.8
 
Date/Time
EST
Temp
°C
App
Temp
°C
Dew
Point
Rel
Hum
%
Delta-T
°C
Wind Press
QNH
hPa
Press
MSL
hPa
Rain
since 9 am
mm
Dir
 
Spd
km/h
Gust
km/h
Spd
kts
Gust
kts
29/11:30pm 12.2 10.0 12.0 99 0.1 NW 15 20 8 11 1010.3 - 1.6
29/11:00pm 12.4 8.3 11.6 95 0.4 WNW 24 32 13 17 1010.3 1010.5 1.6
29/10:30pm 12.6 8.3 12.0 96 0.3 WNW 26 37 14 20 1010.1 - 1.6
29/10:00pm 12.7 7.9 11.6 93 0.6 WNW 28 39 15 21 1010.0 1010.2 1.4
29/09:30pm 12.4 9.3 12.2 99 0.1 NW 20 35 11 19 1009.8 - 1.4
29/09:00pm 12.3 10.1 12.1 99 0.1 WNW 15 20 8 11 1009.7 1009.9 1.4
29/08:30pm 12.4 8.1 12.2 99 0.1 WNW 26 35 14 19 1009.3 - 1.2
29/08:00pm 12.6 8.0 12.3 98 0.2 WNW 28 44 15 24 1009.1 1009.3 0.6
29/07:30pm 13.2 7.1 11.9 92 0.7 WNW 35 52 19 28 1008.6 - 0.6
29/07:00pm 14.2 8.0 11.5 84 1.5 WNW 35 50 19 27 1008.2 1008.4 0.6
29/06:30pm 13.9 8.0 11.1 83 1.5 WNW 33 46 18 25 1007.9 - 0.6
29/06:00pm 14.3 8.5 10.9 80 1.8 WNW 32 43 17 23 1007.4 1007.6 0.6
29/05:34pm 14.1 8.8 11.4 84 1.4 WNW 30 50 16 27 1007.1 - 0.6
29/05:30pm 14.0 8.8 11.5 85 1.3 WNW 30 41 16 22 1007.0 - 0.6
29/05:00pm 14.8 7.8 11.4 80 1.8 WNW 39 61 21 33 1006.9 1007.1 0.6
29/04:30pm 15.1 8.2 11.5 79 1.9 WNW 39 57 21 31 1006.5 - 0.6
29/04:00pm 14.8 8.9 12.5 86 1.3 WNW 35 50 19 27 1006.3 1006.5 0.6
29/03:43pm 14.3 9.5 12.9 91 0.8 WNW 30 48 16 26 1006.3 - 0.6
29/03:30pm 14.5 8.2 12.4 87 1.2 WNW 37 52 20 28 1006.4 - 0.6
29/03:00pm 15.0 7.5 12.0 82 1.6 WNW 43 63 23 34 1006.0 1006.2 0.6
29/02:36pm 14.4 6.5 12.6 89 1.0 WNW 46 69 25 37 1006.1 - 0.6
29/02:30pm 14.3 5.5 12.2 87 1.1 WNW 50 67 27 36 1005.9 - 0.6
29/02:00pm 15.1 9.1 12.2 83 1.6 NW 35 54 19 29 1005.4 1005.6 0.6
29/01:30pm 14.6 8.9 13.1 91 0.8 WNW 35 59 19 32 1005.7 - 0.6
29/01:24pm 14.2 8.1 13.1 93 0.6 WNW 37 59 20 32 1005.7 - 0.6
29/01:00pm 13.9 7.1 12.1 89 1.0 NW 39 52 21 28 1005.7 1006.0 0.0
29/12:30pm 14.4 6.7 12.1 86 1.3 NW 44 57 24 31 1006.1 - 0.0
29/12:10pm 13.9 7.1 11.8 87 1.1 NW 39 59 21 32 1006.3 - 0.0
29/12:00pm 14.2 7.4 12.1 87 1.1 NW 39 50 21 27 1006.5 1006.7 0.0
29/11:30am 13.3 6.5 11.9 91 0.8 NNW 39 54 21 29 1006.9 - 0.0
29/11:18am 13.5 6.6 11.6 88 1.0 NNW 39 59 21 32 1007.2 - 0.0
29/11:00am 13.2 7.0 11.4 89 1.0 NW 35 52 19 28 1007.4 1007.6 0.0
29/10:30am 12.9 5.4 10.8 87 1.1 NNW 41 56 22 30 1007.1 - 0.0
29/10:11am 13.0 5.9 10.9 87 1.1 NNW 39 61 21 33 1006.9 - 0.0
29/10:00am 13.3 6.2 10.8 85 1.3 NNW 39 52 21 28 1007.1 1007.3 0.0
29/09:30am 12.5 5.3 10.6 88 1.0 NW 39 54 21 29 1007.2 - 0.0
29/09:00am 12.5 5.2 10.2 86 1.2 NNW 39 52 21 28 1006.8 1007.0 0.0
29/08:30am 12.2 5.2 9.9 86 1.2 NNW 37 46 20 25 1007.1 - 0.0
29/08:00am 11.8 5.2 9.9 88 1.0 NNW 35 48 19 26 1007.5 1007.7 0.0
29/07:30am 11.8 5.1 9.7 87 1.1 NNW 35 52 19 28 1007.5 - 0.0
29/07:00am 11.8 5.1 9.5 86 1.2 NW 35 48 19 26 1007.4 1007.6 0.0
29/06:30am 12.0 4.9 9.4 84 1.3 NNW 37 48 20 26 1007.2 - 0.0
29/06:00am 11.9 4.7 9.3 84 1.3 NNW 37 50 20 27 1006.9 1007.1 0.0
29/05:46am 11.9 5.5 9.3 84 1.3 NNW 33 52 18 28 1006.8 - 0.0
29/05:30am 11.7 5.9 9.3 85 1.2 NNW 30 44 16 24 1006.9 - 0.0
29/05:00am 11.7 5.3 9.3 85 1.2 NNW 33 46 18 25 1007.2 1007.4 0.0
29/04:30am 11.3 5.1 9.2 87 1.1 NNW 32 46 17 25 1007.5 - 0.0
29/04:00am 11.6 5.2 9.3 86 1.2 NNW 33 50 18 27 1007.1 1007.3 0.0
29/03:30am 11.9 4.7 9.3 84 1.3 NNW 37 54 20 29 1007.4 - 0.0
29/03:00am 12.0 5.2 9.2 83 1.4 NNW 35 50 19 27 1007.8 1008.0 0.0
29/02:30am 11.6 4.7 9.0 84 1.3 NNW 35 46 19 25 1007.9 - 0.0
29/02:02am 11.8 5.4 9.2 84 1.3 NNW 33 52 18 28 1008.3 - 0.0
29/02:00am 11.8 5.0 9.2 84 1.3 NNW 35 52 19 28 1008.4 1008.6 0.0
29/01:30am 12.1 5.3 9.3 83 1.4 NNW 35 46 19 25 1008.7 - 0.0
29/01:00am 12.0 5.1 9.0 82 1.5 NNW 35 48 19 26 1008.9 1009.1 0.0
29/12:30am 12.0 5.1 9.0 82 1.5 NNW 35 46 19 25 1009.4 - 0.0
29/12:00am 11.7 5.4 8.9 83 1.4 NNW 32 43 17 23 1010.0 1010.2 0.0
 
Date/Time
EST
Temp
°C
App
Temp
°C
Dew
Point
Rel
Hum
%
Delta-T
°C
Wind Press
QNH
hPa
Press
MSL
hPa
Rain
since 9 am
mm
Dir
 
Spd
km/h
Gust
km/h
Spd
kts
Gust
kts
28/11:30pm 11.8 5.8 8.6 81 1.6 NNW 30 41 16 22 1010.2 - 0.0
28/11:00pm 12.1 6.1 8.6 79 1.8 NNW 30 41 16 22 1010.4 1010.6 0.0
28/10:30pm 12.3 6.2 8.4 77 1.9 NNW 30 43 16 23 1011.2 - 0.0
28/10:00pm 12.1 6.0 8.2 77 1.9 NNW 30 44 16 24 1011.3 1011.5 0.0
28/09:30pm 11.8 5.7 8.1 78 1.8 NW 30 41 16 22 1011.4 - 0.0
28/09:00pm 9.6 5.8 7.4 86 1.1 NNW 17 22 9 12 1011.5 1011.7 0.0
28/08:30pm 9.6 5.8 7.4 86 1.1 NNW 17 20 9 11 1011.2 - 0.0
28/08:00pm 9.3 5.8 7.3 87 1.0 N 15 19 8 10 1011.2 1011.4 0.0
28/07:30pm 9.8 6.4 7.7 87 1.0 N 15 19 8 10 1011.2 - 0.0
28/07:00pm 11.1 7.4 8.1 82 1.5 NNW 17 20 9 11 1011.3 1011.5 0.0
28/06:30pm 11.1 7.8 8.1 82 1.5 NNW 15 19 8 10 1011.5 - 0.0
28/06:00pm 11.6 8.0 8.3 80 1.6 NNW 17 20 9 11 1011.1 1011.3 0.0
28/05:30pm 12.8 8.3 8.7 76 2.1 NW 22 28 12 15 1010.9 - 0.0
28/05:00pm 13.9 8.7 8.9 72 2.5 NW 26 35 14 19 1010.7 1010.9 0.0
28/04:30pm 14.8 8.6 9.2 69 2.9 NW 32 44 17 24 1010.6 - 0.0
28/04:00pm 15.3 8.8 9.0 66 3.2 NW 33 44 18 24 1010.7 1010.9 0.0
28/03:30pm 15.7 9.2 9.1 65 3.4 NW 33 44 18 24 1010.9 - 0.0
28/03:00pm 15.7 10.3 9.4 66 3.3 WNW 28 46 15 25 1011.6 1011.8 0.0
28/02:30pm 15.3 11.0 10.7 74 2.4 NW 24 37 13 20 1011.4 - 0.0
28/02:00pm 14.7 9.9 10.3 75 2.3 WNW 26 33 14 18 1012.1 1012.4 0.0
28/01:30pm 15.3 9.4 11.1 76 2.3 NW 33 48 18 26 1012.0 - 0.0

Other Formats:

Comma delimited format used in spreadsheet applications
http://www.bom.gov.au/fwo/IDV60801/IDV60801.94840.axf

JavaScript Object Notation format (JSON) in row-major order
http://www.bom.gov.au/fwo/IDV60801/IDV60801.94840.json